Hot Springs Natl Park, AR

4:11 PM CST on January 18, 2017 (GMT -0600)
ME1389 | | Change Station

Elev 596 ft 34.51 °N, 93.05 °W | Updated 4 minutes ago

Overcast
Overcast
46.0 °F
Feels Like 46 °F
N
0.0
Wind Variable Wind from NE
Gusts 1.0 mph

Today
High -- | Low -- °F
--% Chance of Precip.
Yesterday
High -- | Low -- °F
Precip. -- in
Pressure 30.06 in
Visibility 10.0 miles
Clouds Overcast 700 ft
Windchill 46 °F
Dew Point 44 °F
Humidity 93%
Rainfall 0.24 in
Snow Depth Not available.
7:17 AM 5:28 PM
Waning Gibbous, 60% visible
METAR KHOT 182153Z AUTO 09007KT 10SM OVC007 09/08 A3006 RMK AO2 CIG 005V011 SLP178 T00890083
Pressure 30.06 in
Visibility 10.0 miles
Clouds Overcast 700 ft
Windchill 46 °F
Dew Point 44 °F
Humidity 93%
Rainfall 0.24 in
Snow Depth Not available.
7:17 AM 5:28 PM
Waning Gibbous, 60% visible
METAR KHOT 182153Z AUTO 09007KT 10SM OVC007 09/08 A3006 RMK AO2 CIG 005V011 SLP178 T00890083

Get Your Daily Forecast Email!

Thanks for signing up!

Be on the lookout for a verification email in your inbox.

You'll start receiving the daily forecast at 8 AM.

×

10-Day Weather Forecast

Almanac

Astronomy

Jan. 18, 2017 Rise Set
Actual Time
Civil Twilight
Nautical Twilight
Astronomical Twilight
Moon
Length of Visible Light
Length of Day
Tomorrow will be .
, % of the Moon is Illuminated

Today's Extremes

State Highs State Lows

Community

WunderPhotos

Upload Photos

1,962,540 photos uploaded!

WunderBlog® & News

Nearby

Air Quality

  Air Quality AQ Index Pollutant
Not available.

Snow Depth

Station Depth Elevation

Earthquake Activity

City Distance Mag. Time & Date
Minimum magnitude displayed is 2.5.

Coastal Water Temperatures

Place Temperature

Stations

Nearby Weather Stations

Station Location Temp. Windchill Dew Point Humidity Wind Precip. Elev Updated Type
                   

Watches & Warnings

There are currently no watches in effect.